Map

Track Data

SID SEASON NUMBER BASIN SUBBASIN NAME ISO_TIME NATURE LAT LON WMO_WIND WMO_PRES WMO_AGENCY TRACK_TYPE DIST2LAND LANDFALL IFLAG USA_AGENCY USA_ATCF_ID USA_LAT USA_LON USA_RECORD USA_STATUS USA_WIND USA_PRES USA_SSHS USA_R34_NE USA_R34_SE USA_R34_SW USA_R34_NW USA_R50_NE USA_R50_SE USA_R50_SW USA_R50_NW USA_R64_NE USA_R64_SE USA_R64_SW USA_R64_NW USA_POCI USA_ROCI USA_RMW USA_EYE TOKYO_LAT TOKYO_LON TOKYO_GRADE TOKYO_WIND TOKYO_PRES TOKYO_R50_DIR TOKYO_R50_LONG TOKYO_R50_SHORT TOKYO_R30_DIR TOKYO_R30_LONG TOKYO_R30_SHORT TOKYO_LAND CMA_LAT CMA_LON CMA_CAT CMA_WIND CMA_PRES HKO_LAT HKO_LON HKO_CAT HKO_WIND HKO_PRES NEWDELHI_LAT NEWDELHI_LON NEWDELHI_GRADE NEWDELHI_WIND NEWDELHI_PRES NEWDELHI_CI NEWDELHI_DP NEWDELHI_POCI REUNION_LAT REUNION_LON REUNION_TYPE REUNION_WIND REUNION_PRES REUNION_TNUM REUNION_CI REUNION_RMW REUNION_R34_NE REUNION_R34_SE REUNION_R34_SW REUNION_R34_NW REUNION_R50_NE REUNION_R50_SE REUNION_R50_SW REUNION_R50_NW REUNION_R64_NE REUNION_R64_SE REUNION_R64_SW REUNION_R64_NW BOM_LAT BOM_LON BOM_TYPE BOM_WIND BOM_PRES BOM_TNUM BOM_CI BOM_RMW BOM_R34_NE BOM_R34_SE BOM_R34_SW BOM_R34_NW BOM_R50_NE BOM_R50_SE BOM_R50_SW BOM_R50_NW BOM_R64_NE BOM_R64_SE BOM_R64_SW BOM_R64_NW BOM_ROCI BOM_POCI BOM_EYE BOM_POS_METHOD BOM_PRES_METHOD NADI_LAT NADI_LON NADI_CAT NADI_WIND NADI_PRES WELLINGTON_LAT WELLINGTON_LON WELLINGTON_WIND WELLINGTON_PRES DS824_LAT DS824_LON DS824_STAGE DS824_WIND DS824_PRES TD9636_LAT TD9636_LON TD9636_STAGE TD9636_WIND TD9636_PRES TD9635_LAT TD9635_LON TD9635_WIND TD9635_PRES TD9635_ROCI NEUMANN_LAT NEUMANN_LON NEUMANN_CLASS NEUMANN_WIND NEUMANN_PRES MLC_LAT MLC_LON MLC_CLASS MLC_WIND MLC_PRES USA_GUST BOM_GUST BOM_GUST_PER REUNION_GUST REUNION_GUST_PER USA_SEAHGT USA_SEARAD_NE USA_SEARAD_SE USA_SEARAD_SW USA_SEARAD_NW STORM_SPEED STORM_DIR
1969266N21093 1969 86 NI BB NOT_NAMED 1969-09-22 18:00:00 TS 20.6000 93.4000 main 0 0 O________O____ jtwc_io IO091969 20.6000 93.4000 -1 20.6000 93.4000 TC 2 325
1969266N21093 1969 86 NI BB NOT_NAMED 1969-09-22 21:00:00 TS 20.6725 93.3350 main 0 0 P________P____ IO091969 20.6725 93.3350 -1 20.6725 93.3350 TC 3 317
1969266N21093 1969 86 NI BB NOT_NAMED 1969-09-23 00:00:00 TS 20.8000 93.2000 main 0 0 O________O____ jtwc_io IO091969 20.8000 93.2000 -1 20.8000 93.2000 TC 25 5 314
1969266N21093 1969 86 NI BB NOT_NAMED 1969-09-23 03:00:00 TS 21.0178 92.9511 main 0 0 P________PO___ IO091969 21.0200 92.9450 -1 21.0200 92.9450 TC 25 21.0000 93.0000 1 8 312
1969266N21093 1969 86 NI BB NOT_NAMED 1969-09-23 06:00:00 TS 21.3030 92.5947 main 0 0 O________OP___ jtwc_io IO091969 21.3000 92.6000 -1 21.3000 92.6000 TC 25 21.3150 92.5737 1 9 310
1969266N21093 1969 86 NI BB NOT_NAMED 1969-09-23 09:00:00 TS 21.6147 92.1939 main 0 0 P________PP___ IO091969 21.6151 92.2077 -1 21.6151 92.2077 TC 25 21.6136 92.1570 1 10 308
1969266N21093 1969 86 NI BB NOT_NAMED 1969-09-23 12:00:00 TS 21.8934 91.7873 main 10 10 O________OP___ jtwc_io IO091969 21.9000 91.8000 -1 21.9000 91.8000 TC 25 21.8803 91.7618 1 9 303
1969266N21093 1969 86 NI BB NOT_NAMED 1969-09-23 15:00:00 TS 22.0816 91.4182 main 42 30 P________PO___ IO091969 22.0725 91.4273 -1 22.0725 91.4273 TC 25 22.1000 91.4000 1 7 297
1969266N21093 1969 86 NI BB NOT_NAMED 1969-09-23 18:00:00 TS 22.2212 91.0939 main 30 0 O________OP___ jtwc_io IO091969 22.2000 91.1000 -1 22.2000 91.1000 TC 25 22.2637 91.0818 1 6 297
1969266N21093 1969 86 NI BB NOT_NAMED 1969-09-23 21:00:00 TS 22.3673 90.8164 main 0 0 P________PP___ IO091969 22.3574 90.8200 -1 22.3574 90.8200 TC 25 22.3871 90.8092 1 5 301
1969266N21093 1969 86 NI BB NOT_NAMED 1969-09-24 00:00:00 TS 22.4973 90.5940 main 10 0 O________OP___ jtwc_io IO091969 22.5000 90.6000 -1 22.5000 90.6000 TC 25 22.4920 90.5820 1 4 302
1969266N21093 1969 86 NI BB NOT_NAMED 1969-09-24 03:00:00 TS 22.5950 90.4183 main 0 0 P________PO___ IO091969 22.5925 90.4274 -1 22.5925 90.4274 TC 25 22.6000 90.4000 1 4 308
1969266N21093 1969 86 NI BB NOT_NAMED 1969-09-24 06:00:00 TS 22.7155 90.2869 main 0 0 O________OP___ jtwc_io IO091969 22.7000 90.3000 -1 22.7000 90.3000 TC 25 22.7466 90.2607 1 4 325
1969266N21093 1969 86 NI BB NOT_NAMED 1969-09-24 09:00:00 TS 22.8999 90.1824 main 0 0 P________PP___ IO091969 22.9000 90.1925 -1 22.9000 90.1925 TC 25 22.8997 90.1622 1 4 334
1969266N21093 1969 86 NI BB NOT_NAMED 1969-09-24 12:00:00 TS 23.0843 90.0942 main 0 0 O________OP___ jtwc_io IO091969 23.1000 90.1000 -1 23.1000 90.1000 TC 25 23.0529 90.0826 1 3 332
1969266N21093 1969 86 NI BB NOT_NAMED 1969-09-24 15:00:00 TS 23.2050 90.0000 main 0 0 P________PO___ IO091969 23.2075 89.9999 -1 23.2075 89.9999 TC 25 23.2000 90.0000 1 3 321
1969266N21093 1969 86 NI BB NOT_NAMED 1969-09-24 18:00:00 TS 23.3066 89.8994 main 0 0 O________OP___ jtwc_io IO091969 23.3000 89.9000 -1 23.3000 89.9000 TC 25 23.3199 89.8981 1 3 323
1969266N21093 1969 86 NI BB NOT_NAMED 1969-09-24 21:00:00 TS 23.4399 89.8056 main 0 0 P________PP___ IO091969 23.4425 89.8149 -1 23.4425 89.8149 TC 25 23.4348 89.7870 1 3 325
1969266N21093 1969 86 NI BB NOT_NAMED 1969-09-25 00:00:00 TS 23.5858 89.6858 main 0 0 O________OP___ jtwc_io IO091969 23.6000 89.7000 -1 23.6000 89.7000 TC 25 23.5573 89.6574 1 4 317
1969266N21093 1969 86 NI BB NOT_NAMED 1969-09-25 03:00:00 TS 23.7283 89.5150 main 0 0 P________PO___ IO091969 23.7425 89.5224 -1 23.7425 89.5224 TC 25 23.7000 89.5000 1 5 311
1969266N21093 1969 86 NI BB NOT_NAMED 1969-09-25 06:00:00 TS 23.8955 89.3027 main 0 0 O________OP___ jtwc_io IO091969 23.9000 89.3000 -1 23.9000 89.3000 TC 25 23.8866 89.3080 1 6 311
1969266N21093 1969 86 NI BB NOT_NAMED 1969-09-25 09:00:00 TS 24.0925 89.0626 main 0 0 P________PP___ IO091969 24.0925 89.0500 -1 24.0925 89.0500 TC 25 24.0925 89.0877 1 6 312
1969266N21093 1969 86 NI BB NOT_NAMED 1969-09-25 12:00:00 TS 24.3007 88.8162 main 0 0 O________OP___ jtwc_io IO091969 24.3000 88.8000 -1 24.3000 88.8000 TC 25 24.3022 88.8486 1 6 314
1969266N21093 1969 86 NI BB NOT_NAMED 1969-09-25 15:00:00 TS 24.5049 88.5999 main 0 0 P________PO___ IO091969 24.5074 88.5999 -1 24.5074 88.5999 TC 25 24.5000 88.6000 1 6 314
1969266N21093 1969 86 NI BB NOT_NAMED 1969-09-25 18:00:00 TS 24.6897 88.3800 main 0 0 O________OP___ jtwc_io IO091969 24.7000 88.4000 -1 24.7000 88.4000 TC 25 24.6742 88.3500 1 5 309
1969266N21093 1969 86 NI BB NOT_NAMED 1969-09-25 21:00:00 TS 24.8463 88.1358 main 0 0 P________PP___ IO091969 24.8601 88.1626 -1 24.8601 88.1626 TC 25 24.8277 88.1001 1 5 303
1969266N21093 1969 86 NI BB NOT_NAMED 1969-09-26 00:00:00 TS 24.9837 87.8751 main 0 0 O________OP___ jtwc_io IO091969 25.0000 87.9000 -1 25.0000 87.9000 TC 25 24.9674 87.8502 1 5 298
1969266N21093 1969 86 NI BB NOT_NAMED 1969-09-26 03:00:00 NR 25.1000 87.6000 main 0 __________O___ IO091969 -1 TC 25.1000 87.6000 1 6 295

About IBTrACS Database

This database is a web-friendly format of International Best Track Archive for Climate Stewardship (IBTrACS), a global best track data archive curated by NOAA dating back to 1842.

Updated: 2021-11-26